sensor_id;sensor_type;location;lat;lon;timestamp;pressure;altitude;pressure_sealevel;temperature;humidity
63321;BME280;49449;48.800;9.534;2023-12-20T00:01:33;98568.72;;;6.00;43.48
63321;BME280;49449;48.800;9.534;2023-12-20T00:04:01;98575.38;;;5.96;43.30
63321;BME280;49449;48.800;9.534;2023-12-20T00:06:29;98571.44;;;5.72;43.22
63321;BME280;49449;48.800;9.534;2023-12-20T00:08:57;98561.38;;;5.69;43.89
63321;BME280;49449;48.800;9.534;2023-12-20T00:11:25;98556.78;;;5.84;44.28
63321;BME280;49449;48.800;9.534;2023-12-20T00:13:52;98563.88;;;5.90;44.42
63321;BME280;49449;48.800;9.534;2023-12-20T00:16:20;98549.75;;;5.98;44.56
63321;BME280;49449;48.800;9.534;2023-12-20T00:18:49;98550.78;;;6.04;44.58
63321;BME280;49449;48.800;9.534;2023-12-20T00:21:17;98555.81;;;5.99;44.28
63321;BME280;49449;48.800;9.534;2023-12-20T00:23:45;98548.50;;;5.87;44.51
63321;BME280;49449;48.800;9.534;2023-12-20T00:26:13;98538.84;;;5.95;44.72
63321;BME280;49449;48.800;9.534;2023-12-20T00:28:40;98540.28;;;5.97;44.74
63321;BME280;49449;48.800;9.534;2023-12-20T00:31:09;98545.53;;;5.97;44.42
63321;BME280;49449;48.800;9.534;2023-12-20T00:33:37;98539.47;;;5.97;45.46
63321;BME280;49449;48.800;9.534;2023-12-20T00:36:07;98535.88;;;6.04;45.20
63321;BME280;49449;48.800;9.534;2023-12-20T00:38:36;98527.19;;;6.11;45.27
63321;BME280;49449;48.800;9.534;2023-12-20T00:41:04;98517.50;;;6.11;44.74
63321;BME280;49449;48.800;9.534;2023-12-20T00:43:31;98519.53;;;6.02;45.14
63321;BME280;49449;48.800;9.534;2023-12-20T00:45:59;98518.69;;;6.02;45.16
63321;BME280;49449;48.800;9.534;2023-12-20T00:48:27;98514.06;;;6.04;45.22
63321;BME280;49449;48.800;9.534;2023-12-20T00:50:56;98516.09;;;6.08;45.29
63321;BME280;49449;48.800;9.534;2023-12-20T00:53:26;98524.16;;;6.07;45.33
63321;BME280;49449;48.800;9.534;2023-12-20T00:55:53;98530.78;;;5.96;45.65
63321;BME280;49449;48.800;9.534;2023-12-20T00:58:21;98525.56;;;6.03;45.52
63321;BME280;49449;48.800;9.534;2023-12-20T01:00:49;98531.03;;;6.08;45.76
63321;BME280;49449;48.800;9.534;2023-12-20T01:03:17;98535.88;;;6.04;45.79
63321;BME280;49449;48.800;9.534;2023-12-20T01:05:45;98537.09;;;6.08;45.88
63321;BME280;49449;48.800;9.534;2023-12-20T01:08:13;98530.00;;;6.09;46.29
63321;BME280;49449;48.800;9.534;2023-12-20T01:10:42;98520.53;;;6.08;46.03
63321;BME280;49449;48.800;9.534;2023-12-20T01:13:10;98515.28;;;6.01;46.23
63321;BME280;49449;48.800;9.534;2023-12-20T01:15:37;98526.16;;;5.98;45.97
63321;BME280;49449;48.800;9.534;2023-12-20T01:18:05;98525.56;;;6.03;46.37
63321;BME280;49449;48.800;9.534;2023-12-20T01:20:33;98516.28;;;6.07;46.46
63321;BME280;49449;48.800;9.534;2023-12-20T01:23:01;98528.41;;;6.08;46.83
63321;BME280;49449;48.800;9.534;2023-12-20T01:25:29;98523.78;;;6.10;46.51
63321;BME280;49449;48.800;9.534;2023-12-20T01:27:58;98534.03;;;5.98;46.82
63321;BME280;49449;48.800;9.534;2023-12-20T01:30:26;98546.56;;;6.03;46.78
63321;BME280;49449;48.800;9.534;2023-12-20T01:32:54;98544.94;;;6.02;47.18
63321;BME280;49449;48.800;9.534;2023-12-20T01:35:21;98540.06;;;5.92;47.33
63321;BME280;49449;48.800;9.534;2023-12-20T01:37:49;98548.97;;;5.98;47.48
63321;BME280;49449;48.800;9.534;2023-12-20T01:40:17;98542.72;;;6.05;46.99
63321;BME280;49449;48.800;9.534;2023-12-20T01:42:45;98554.44;;;6.09;47.06
63321;BME280;49449;48.800;9.534;2023-12-20T01:45:14;98552.00;;;6.01;47.73
63321;BME280;49449;48.800;9.534;2023-12-20T01:47:42;98559.88;;;6.01;47.19
63321;BME280;49449;48.800;9.534;2023-12-20T01:50:10;98555.03;;;6.05;47.33
63321;BME280;49449;48.800;9.534;2023-12-20T01:52:38;98546.53;;;5.96;47.48
63321;BME280;49449;48.800;9.534;2023-12-20T01:55:06;98547.75;;;6.00;47.45
63321;BME280;49449;48.800;9.534;2023-12-20T01:57:39;98549.59;;;6.06;47.50
63321;BME280;49449;48.800;9.534;2023-12-20T02:00:09;98559.69;;;6.09;47.75
63321;BME280;49449;48.800;9.534;2023-12-20T02:02:40;98563.53;;;6.14;48.11
63321;BME280;49449;48.800;9.534;2023-12-20T02:05:08;98551.03;;;6.16;48.25
63321;BME280;49449;48.800;9.534;2023-12-20T02:07:36;98551.63;;;6.18;47.64
63321;BME280;49449;48.800;9.534;2023-12-20T02:10:05;98544.38;;;6.13;47.57
63321;BME280;49449;48.800;9.534;2023-12-20T02:12:33;98546.81;;;6.15;48.06
63321;BME280;49449;48.800;9.534;2023-12-20T02:15:01;98549.84;;;6.18;47.72
63321;BME280;49449;48.800;9.534;2023-12-20T02:17:29;98532.25;;;6.12;47.98
63321;BME280;49449;48.800;9.534;2023-12-20T02:19:59;98549.81;;;6.12;47.83
63321;BME280;49449;48.800;9.534;2023-12-20T02:22:28;98538.72;;;6.16;47.92
63321;BME280;49449;48.800;9.534;2023-12-20T02:24:56;98539.53;;;6.17;47.98
63321;BME280;49449;48.800;9.534;2023-12-20T02:27:24;98536.50;;;6.20;48.32
63321;BME280;49449;48.800;9.534;2023-12-20T02:29:52;98531.25;;;6.20;47.96
63321;BME280;49449;48.800;9.534;2023-12-20T02:32:20;98529.66;;;6.19;48.14
63321;BME280;49449;48.800;9.534;2023-12-20T02:34:49;98533.47;;;6.16;47.86
63321;BME280;49449;48.800;9.534;2023-12-20T02:37:16;98536.91;;;6.17;48.50
63321;BME280;49449;48.800;9.534;2023-12-20T02:39:46;98520.56;;;6.21;48.11
63321;BME280;49449;48.800;9.534;2023-12-20T02:42:13;98539.75;;;6.22;48.19
63321;BME280;49449;48.800;9.534;2023-12-20T02:44:41;98539.34;;;6.18;48.34
63321;BME280;49449;48.800;9.534;2023-12-20T02:47:09;98529.03;;;6.17;48.04
63321;BME280;49449;48.800;9.534;2023-12-20T02:49:37;98543.72;;;6.11;48.17
63321;BME280;49449;48.800;9.534;2023-12-20T02:52:05;98548.78;;;6.13;48.30
63321;BME280;49449;48.800;9.534;2023-12-20T02:54:33;98550.22;;;6.15;48.58
63321;BME280;49449;48.800;9.534;2023-12-20T02:57:02;98546.34;;;6.11;48.43
63321;BME280;49449;48.800;9.534;2023-12-20T02:59:30;98548.16;;;6.04;48.59
63321;BME280;49449;48.800;9.534;2023-12-20T03:01:58;98549.19;;;6.09;48.51
63321;BME280;49449;48.800;9.534;2023-12-20T03:04:26;98545.16;;;6.14;48.49
63321;BME280;49449;48.800;9.534;2023-12-20T03:06:54;98549.00;;;6.18;48.65
63321;BME280;49449;48.800;9.534;2023-12-20T03:09:22;98547.59;;;6.15;48.56
63321;BME280;49449;48.800;9.534;2023-12-20T03:11:49;98551.00;;;6.02;48.41
63321;BME280;49449;48.800;9.534;2023-12-20T03:14:18;98554.03;;;6.06;48.67
63321;BME280;49449;48.800;9.534;2023-12-20T03:16:47;98553.22;;;6.05;48.47
63321;BME280;49449;48.800;9.534;2023-12-20T03:19:16;98552.00;;;6.01;49.03
63321;BME280;49449;48.800;9.534;2023-12-20T03:21:44;98551.78;;;5.96;48.82
63321;BME280;49449;48.800;9.534;2023-12-20T03:24:12;98558.84;;;5.96;49.02
63321;BME280;49449;48.800;9.534;2023-12-20T03:26:39;98560.25;;;5.98;49.06
63321;BME280;49449;48.800;9.534;2023-12-20T03:29:07;98563.69;;;6.05;48.88
63321;BME280;49449;48.800;9.534;2023-12-20T03:31:36;98567.34;;;6.11;48.90
63321;BME280;49449;48.800;9.534;2023-12-20T03:34:04;98565.16;;;6.15;48.77
63321;BME280;49449;48.800;9.534;2023-12-20T03:36:32;98568.38;;;6.17;48.69
63321;BME280;49449;48.800;9.534;2023-12-20T03:39:00;98569.78;;;6.19;48.74
63321;BME280;49449;48.800;9.534;2023-12-20T03:41:27;98571.44;;;6.20;48.96
63321;BME280;49449;48.800;9.534;2023-12-20T03:43:55;98573.22;;;6.13;48.93
63321;BME280;49449;48.800;9.534;2023-12-20T03:46:23;98575.84;;;6.13;49.24
63321;BME280;49449;48.800;9.534;2023-12-20T03:48:52;98577.84;;;6.18;49.10
63321;BME280;49449;48.800;9.534;2023-12-20T03:51:20;98577.66;;;6.19;48.89
63321;BME280;49449;48.800;9.534;2023-12-20T03:53:47;98570.81;;;6.18;48.92
63321;BME280;49449;48.800;9.534;2023-12-20T03:56:15;98576.88;;;6.19;48.86
63321;BME280;49449;48.800;9.534;2023-12-20T03:58:43;98573.63;;;6.17;48.74
63321;BME280;49449;48.800;9.534;2023-12-20T04:01:11;98577.06;;;6.17;48.66
63321;BME280;49449;48.800;9.534;2023-12-20T04:03:39;98580.47;;;6.18;48.89
63321;BME280;49449;48.800;9.534;2023-12-20T04:06:08;98583.94;;;6.18;48.88
63321;BME280;49449;48.800;9.534;2023-12-20T04:08:36;98579.31;;;6.20;48.82
63321;BME280;49449;48.800;9.534;2023-12-20T04:11:04;98580.50;;;6.24;48.80
63321;BME280;49449;48.800;9.534;2023-12-20T04:13:32;98584.75;;;6.25;48.67
63321;BME280;49449;48.800;9.534;2023-12-20T04:15:59;98590.41;;;6.22;48.62
63321;BME280;49449;48.800;9.534;2023-12-20T04:18:27;98594.84;;;6.22;48.94
63321;BME280;49449;48.800;9.534;2023-12-20T04:20:55;98589.19;;;6.25;48.99
63321;BME280;49449;48.800;9.534;2023-12-20T04:23:24;98585.94;;;6.23;48.42
63321;BME280;49449;48.800;9.534;2023-12-20T04:25:53;98591.38;;;6.21;48.52
63321;BME280;49449;48.800;9.534;2023-12-20T04:28:21;98590.22;;;6.24;48.84
63321;BME280;49449;48.800;9.534;2023-12-20T04:30:48;98592.84;;;6.24;48.53
63321;BME280;49449;48.800;9.534;2023-12-20T04:33:17;98604.94;;;6.25;49.12
63321;BME280;49449;48.800;9.534;2023-12-20T04:35:45;98605.94;;;6.24;48.76
63321;BME280;49449;48.800;9.534;2023-12-20T04:38:13;98608.16;;;6.27;48.85
63321;BME280;49449;48.800;9.534;2023-12-20T04:40:42;98604.72;;;6.26;49.03
63321;BME280;49449;48.800;9.534;2023-12-20T04:43:10;98607.75;;;6.30;48.74
63321;BME280;49449;48.800;9.534;2023-12-20T04:45:38;98611.56;;;6.14;48.94
63321;BME280;49449;48.800;9.534;2023-12-20T04:48:06;98615.00;;;6.15;49.14
63321;BME280;49449;48.800;9.534;2023-12-20T04:50:34;98613.59;;;6.19;48.95
63321;BME280;49449;48.800;9.534;2023-12-20T04:53:01;98609.75;;;6.21;49.16
63321;BME280;49449;48.800;9.534;2023-12-20T04:55:29;98620.03;;;6.16;48.55
63321;BME280;49449;48.800;9.534;2023-12-20T04:57:58;98634.78;;;6.17;48.64
63321;BME280;49449;48.800;9.534;2023-12-20T05:00:26;98635.38;;;6.19;48.83
63321;BME280;49449;48.800;9.534;2023-12-20T05:02:54;98641.25;;;6.21;48.76
63321;BME280;49449;48.800;9.534;2023-12-20T05:05:22;98637.44;;;6.24;49.02
63321;BME280;49449;48.800;9.534;2023-12-20T05:07:50;98620.44;;;6.13;48.46
63321;BME280;49449;48.800;9.534;2023-12-20T05:10:19;98626.66;;;6.05;48.56
63321;BME280;49449;48.800;9.534;2023-12-20T05:12:47;98632.31;;;6.09;48.68
63321;BME280;49449;48.800;9.534;2023-12-20T05:15:16;98635.78;;;6.09;48.77
63321;BME280;49449;48.800;9.534;2023-12-20T05:17:43;98638.59;;;6.08;48.53
63321;BME280;49449;48.800;9.534;2023-12-20T05:20:11;98641.59;;;6.05;48.31
63321;BME280;49449;48.800;9.534;2023-12-20T05:22:41;98640.72;;;5.91;48.93
63321;BME280;49449;48.800;9.534;2023-12-20T05:25:09;98648.97;;;5.88;48.91
63321;BME280;49449;48.800;9.534;2023-12-20T05:27:37;98642.25;;;5.79;48.96
63321;BME280;49449;48.800;9.534;2023-12-20T05:30:05;98651.34;;;5.83;48.88
63321;BME280;49449;48.800;9.534;2023-12-20T05:32:35;98656.53;;;5.69;49.28
63321;BME280;49449;48.800;9.534;2023-12-20T05:35:03;98653.31;;;5.67;49.09
63321;BME280;49449;48.800;9.534;2023-12-20T05:37:31;98651.28;;;5.69;48.92
63321;BME280;49449;48.800;9.534;2023-12-20T05:39:59;98650.16;;;5.50;49.54
63321;BME280;49449;48.800;9.534;2023-12-20T05:42:27;98649.72;;;5.47;49.38
63321;BME280;49449;48.800;9.534;2023-12-20T05:44:55;98641.88;;;5.47;49.23
63321;BME280;49449;48.800;9.534;2023-12-20T05:47:23;98656.25;;;5.29;49.88
63321;BME280;49449;48.800;9.534;2023-12-20T05:49:53;98659.91;;;5.28;49.64
63321;BME280;49449;48.800;9.534;2023-12-20T05:52:20;98664.91;;;5.30;49.59
63321;BME280;49449;48.800;9.534;2023-12-20T05:54:48;98669.78;;;5.33;49.95
63321;BME280;49449;48.800;9.534;2023-12-20T05:57:16;98669.47;;;5.43;49.47
63321;BME280;49449;48.800;9.534;2023-12-20T05:59:44;98676.97;;;5.46;49.60
63321;BME280;49449;48.800;9.534;2023-12-20T06:02:11;98671.19;;;5.57;49.61
63321;BME280;49449;48.800;9.534;2023-12-20T06:04:41;98671.00;;;5.59;49.51
63321;BME280;49449;48.800;9.534;2023-12-20T06:07:12;98677.69;;;5.68;49.41
63321;BME280;49449;48.800;9.534;2023-12-20T06:09:40;98686.22;;;5.77;49.18
63321;BME280;49449;48.800;9.534;2023-12-20T06:12:08;98692.50;;;5.82;49.46
63321;BME280;49449;48.800;9.534;2023-12-20T06:14:36;98694.56;;;5.87;49.23
63321;BME280;49449;48.800;9.534;2023-12-20T06:17:04;98706.88;;;5.93;49.17
63321;BME280;49449;48.800;9.534;2023-12-20T06:19:32;98697.00;;;5.95;49.14
63321;BME280;49449;48.800;9.534;2023-12-20T06:22:00;98696.63;;;5.98;49.09
63321;BME280;49449;48.800;9.534;2023-12-20T06:24:29;98703.75;;;6.04;49.01
63321;BME280;49449;48.800;9.534;2023-12-20T06:26:57;98704.53;;;6.05;48.91
63321;BME280;49449;48.800;9.534;2023-12-20T06:29:24;98710.59;;;6.05;48.52
63321;BME280;49449;48.800;9.534;2023-12-20T06:31:52;98704.44;;;5.85;48.90
63321;BME280;49449;48.800;9.534;2023-12-20T06:34:20;98708.34;;;5.67;49.25
63321;BME280;49449;48.800;9.534;2023-12-20T06:36:48;98708.53;;;5.66;49.25
63321;BME280;49449;48.800;9.534;2023-12-20T06:39:16;98710.38;;;5.72;49.01
63321;BME280;49449;48.800;9.534;2023-12-20T06:41:45;98712.34;;;5.63;49.42
63321;BME280;49449;48.800;9.534;2023-12-20T06:44:13;98706.06;;;5.58;49.47
63321;BME280;49449;48.800;9.534;2023-12-20T06:46:41;98710.50;;;5.57;49.17
63321;BME280;49449;48.800;9.534;2023-12-20T06:49:08;98712.34;;;5.63;49.00
63321;BME280;49449;48.800;9.534;2023-12-20T06:51:37;98710.06;;;5.54;49.72
63321;BME280;49449;48.800;9.534;2023-12-20T06:54:04;98717.69;;;5.48;49.39
63321;BME280;49449;48.800;9.534;2023-12-20T06:56:32;98717.97;;;5.60;49.60
63321;BME280;49449;48.800;9.534;2023-12-20T06:59:01;98727.13;;;5.71;49.54
63321;BME280;49449;48.800;9.534;2023-12-20T07:01:29;98733.22;;;5.78;49.09
63321;BME280;49449;48.800;9.534;2023-12-20T07:03:57;98727.63;;;5.88;49.19
63321;BME280;49449;48.800;9.534;2023-12-20T07:06:25;98734.69;;;5.87;49.08
63321;BME280;49449;48.800;9.534;2023-12-20T07:08:53;98739.81;;;5.96;49.03
63321;BME280;49449;48.800;9.534;2023-12-20T07:11:20;98743.47;;;6.01;49.15
63321;BME280;49449;48.800;9.534;2023-12-20T07:13:48;98748.31;;;6.04;49.25
63321;BME280;49449;48.800;9.534;2023-12-20T07:16:17;98751.94;;;6.03;49.05
63321;BME280;49449;48.800;9.534;2023-12-20T07:18:45;98760.63;;;6.04;49.28
63321;BME280;49449;48.800;9.534;2023-12-20T07:21:13;98756.63;;;6.08;49.16
63321;BME280;49449;48.800;9.534;2023-12-20T07:23:42;98758.84;;;6.11;49.14
63321;BME280;49449;48.800;9.534;2023-12-20T07:26:10;98754.56;;;6.03;48.97
63321;BME280;49449;48.800;9.534;2023-12-20T07:28:38;98756.19;;;6.04;48.60
63321;BME280;49449;48.800;9.534;2023-12-20T07:31:05;98765.19;;;5.95;49.15
63321;BME280;49449;48.800;9.534;2023-12-20T07:33:34;98765.84;;;6.04;49.20
63321;BME280;49449;48.800;9.534;2023-12-20T07:36:04;98780.84;;;6.10;48.63
63321;BME280;49449;48.800;9.534;2023-12-20T07:38:34;98781.88;;;6.16;49.04
63321;BME280;49449;48.800;9.534;2023-12-20T07:41:02;98778.88;;;6.19;49.05
63321;BME280;49449;48.800;9.534;2023-12-20T07:43:30;98779.25;;;6.16;48.77
63321;BME280;49449;48.800;9.534;2023-12-20T07:46:01;98778.66;;;6.14;48.70
63321;BME280;49449;48.800;9.534;2023-12-20T07:48:31;98787.09;;;6.09;49.19
63321;BME280;49449;48.800;9.534;2023-12-20T07:51:00;98783.97;;;5.92;49.50
63321;BME280;49449;48.800;9.534;2023-12-20T07:53:28;98792.09;;;6.04;48.99
63321;BME280;49449;48.800;9.534;2023-12-20T07:55:56;98796.78;;;6.08;49.37
63321;BME280;49449;48.800;9.534;2023-12-20T07:58:23;98790.78;;;6.15;49.62
63321;BME280;49449;48.800;9.534;2023-12-20T08:00:55;98786.75;;;6.19;49.30
63321;BME280;49449;48.800;9.534;2023-12-20T08:03:22;98796.44;;;6.18;50.08
63321;BME280;49449;48.800;9.534;2023-12-20T08:05:50;98807.44;;;6.07;49.25
63321;BME280;49449;48.800;9.534;2023-12-20T08:08:19;98809.66;;;6.03;49.12
63321;BME280;49449;48.800;9.534;2023-12-20T08:10:47;98808.66;;;6.04;49.82
63321;BME280;49449;48.800;9.534;2023-12-20T08:13:15;98803.66;;;6.09;49.80
63321;BME280;49449;48.800;9.534;2023-12-20T08:15:43;98805.06;;;6.12;49.06
63321;BME280;49449;48.800;9.534;2023-12-20T08:18:11;98799.59;;;6.07;49.02
63321;BME280;49449;48.800;9.534;2023-12-20T08:20:38;98804.69;;;6.15;49.02
63321;BME280;49449;48.800;9.534;2023-12-20T08:23:06;98806.09;;;6.18;49.12
63321;BME280;49449;48.800;9.534;2023-12-20T08:25:37;98812.41;;;6.23;48.98
63321;BME280;49449;48.800;9.534;2023-12-20T08:28:05;98815.25;;;6.28;48.19
63321;BME280;49449;48.800;9.534;2023-12-20T08:30:32;98810.56;;;6.17;49.11
63321;BME280;49449;48.800;9.534;2023-12-20T08:33:00;98812.41;;;6.23;49.00
63321;BME280;49449;48.800;9.534;2023-12-20T08:35:29;98812.91;;;6.34;49.30
63321;BME280;49449;48.800;9.534;2023-12-20T08:37:56;98827.06;;;6.39;48.56
63321;BME280;49449;48.800;9.534;2023-12-20T08:40:24;98833.78;;;6.49;48.56
63321;BME280;49449;48.800;9.534;2023-12-20T08:42:53;98827.94;;;6.46;48.90
63321;BME280;49449;48.800;9.534;2023-12-20T08:45:21;98828.31;;;6.43;47.91
63321;BME280;49449;48.800;9.534;2023-12-20T08:47:49;98838.00;;;6.43;48.46
63321;BME280;49449;48.800;9.534;2023-12-20T08:50:17;98837.59;;;6.46;48.84
63321;BME280;49449;48.800;9.534;2023-12-20T08:52:45;98843.44;;;6.41;47.64
63321;BME280;49449;48.800;9.534;2023-12-20T08:55:13;98835.16;;;6.44;47.85
63321;BME280;49449;48.800;9.534;2023-12-20T08:57:42;98827.28;;;6.38;46.82
63321;BME280;49449;48.800;9.534;2023-12-20T09:00:13;98823.53;;;6.25;47.18
63321;BME280;49449;48.800;9.534;2023-12-20T09:02:41;98819.09;;;6.26;46.92
63321;BME280;49449;48.800;9.534;2023-12-20T09:05:09;98819.34;;;6.31;46.82
63321;BME280;49449;48.800;9.534;2023-12-20T09:07:36;98821.66;;;6.96;46.21
63321;BME280;49449;48.800;9.534;2023-12-20T09:10:05;98821.06;;;9.90;41.32
63321;BME280;49449;48.800;9.534;2023-12-20T09:12:33;98813.34;;;11.90;36.90
63321;BME280;49449;48.800;9.534;2023-12-20T09:15:00;98816.56;;;13.49;34.37
63321;BME280;49449;48.800;9.534;2023-12-20T09:17:30;98813.22;;;14.88;31.99
63321;BME280;49449;48.800;9.534;2023-12-20T09:20:01;98809.94;;;15.57;30.14
63321;BME280;49449;48.800;9.534;2023-12-20T09:22:29;98816.53;;;16.72;29.04
63321;BME280;49449;48.800;9.534;2023-12-20T09:24:57;98804.47;;;17.58;25.93
63321;BME280;49449;48.800;9.534;2023-12-20T09:27:24;98819.59;;;18.14;26.01
63321;BME280;49449;48.800;9.534;2023-12-20T09:29:52;98810.34;;;18.77;25.67
63321;BME280;49449;48.800;9.534;2023-12-20T09:32:20;98807.44;;;19.18;25.43
63321;BME280;49449;48.800;9.534;2023-12-20T09:34:49;98803.84;;;20.02;24.33
63321;BME280;49449;48.800;9.534;2023-12-20T09:37:17;98818.72;;;20.42;23.49
63321;BME280;49449;48.800;9.534;2023-12-20T09:39:45;98807.59;;;20.97;22.49
63321;BME280;49449;48.800;9.534;2023-12-20T09:42:15;98802.00;;;21.46;22.59
63321;BME280;49449;48.800;9.534;2023-12-20T09:44:44;98806.81;;;21.68;21.51
63321;BME280;49449;48.800;9.534;2023-12-20T09:47:15;98806.41;;;22.21;21.64
63321;BME280;49449;48.800;9.534;2023-12-20T09:49:46;98800.19;;;22.62;20.14
63321;BME280;49449;48.800;9.534;2023-12-20T09:52:16;98796.72;;;22.48;19.67
63321;BME280;49449;48.800;9.534;2023-12-20T09:54:47;98804.44;;;22.91;20.19
63321;BME280;49449;48.800;9.534;2023-12-20T09:57:17;98808.25;;;22.90;19.33
63321;BME280;49449;48.800;9.534;2023-12-20T09:59:44;98817.16;;;23.13;20.07
63321;BME280;49449;48.800;9.534;2023-12-20T10:02:13;98819.44;;;23.20;19.13
63321;BME280;49449;48.800;9.534;2023-12-20T10:04:46;98811.69;;;23.04;17.86
63321;BME280;49449;48.800;9.534;2023-12-20T10:07:15;98800.31;;;23.30;17.33
63321;BME280;49449;48.800;9.534;2023-12-20T10:09:44;98796.22;;;23.10;19.60
63321;BME280;49449;48.800;9.534;2023-12-20T10:12:11;98787.91;;;23.43;19.19
63321;BME280;49449;48.800;9.534;2023-12-20T10:14:39;98790.69;;;23.52;19.08
63321;BME280;49449;48.800;9.534;2023-12-20T10:17:07;98794.19;;;23.16;19.26
63321;BME280;49449;48.800;9.534;2023-12-20T10:19:36;98788.25;;;23.28;18.72
63321;BME280;49449;48.800;9.534;2023-12-20T10:22:04;98786.63;;;23.40;18.65
63321;BME280;49449;48.800;9.534;2023-12-20T10:24:33;98783.25;;;23.35;17.35
63321;BME280;49449;48.800;9.534;2023-12-20T10:27:02;98784.59;;;22.87;18.88
63321;BME280;49449;48.800;9.534;2023-12-20T10:29:32;98787.41;;;22.68;20.11
63321;BME280;49449;48.800;9.534;2023-12-20T10:32:22;98789.34;;;22.12;21.58
63321;BME280;49449;48.800;9.534;2023-12-20T10:34:50;98777.22;;;21.16;18.43
63321;BME280;49449;48.800;9.534;2023-12-20T10:37:18;98784.75;;;20.03;20.30
63321;BME280;49449;48.800;9.534;2023-12-20T10:39:50;98789.31;;;18.50;22.44
63321;BME280;49449;48.800;9.534;2023-12-20T10:42:20;98784.94;;;17.68;24.52
63321;BME280;49449;48.800;9.534;2023-12-20T10:44:48;98790.75;;;16.98;24.17
63321;BME280;49449;48.800;9.534;2023-12-20T10:47:17;98787.53;;;16.28;24.74
63321;BME280;49449;48.800;9.534;2023-12-20T10:49:45;98792.28;;;15.83;24.05
63321;BME280;49449;48.800;9.534;2023-12-20T10:52:13;98788.13;;;15.28;25.78
63321;BME280;49449;48.800;9.534;2023-12-20T10:54:41;98787.75;;;14.92;25.73
63321;BME280;49449;48.800;9.534;2023-12-20T10:57:11;98792.34;;;14.52;28.55
63321;BME280;49449;48.800;9.534;2023-12-20T10:59:39;98795.66;;;14.04;26.99
63321;BME280;49449;48.800;9.534;2023-12-20T11:02:07;98786.59;;;13.82;29.00
63321;BME280;49449;48.800;9.534;2023-12-20T11:04:44;98786.03;;;13.63;31.95
63321;BME280;49449;48.800;9.534;2023-12-20T11:07:21;98781.41;;;13.42;27.15
63321;BME280;49449;48.800;9.534;2023-12-20T11:09:57;98770.75;;;12.67;28.07
63321;BME280;49449;48.800;9.534;2023-12-20T11:12:35;98788.41;;;12.62;30.21
63321;BME280;49449;48.800;9.534;2023-12-20T11:15:06;98779.72;;;12.38;30.68
63321;BME280;49449;48.800;9.534;2023-12-20T11:17:34;98786.94;;;12.42;31.96
63321;BME280;49449;48.800;9.534;2023-12-20T11:20:09;98789.94;;;12.46;31.65
63321;BME280;49449;48.800;9.534;2023-12-20T11:22:52;98787.56;;;11.85;31.21
63321;BME280;49449;48.800;9.534;2023-12-20T11:25:20;98779.81;;;11.60;28.24
63321;BME280;49449;48.800;9.534;2023-12-20T11:28:10;98781.38;;;10.95;31.04
63321;BME280;49449;48.800;9.534;2023-12-20T11:30:42;98785.97;;;10.81;28.88
63321;BME280;49449;48.800;9.534;2023-12-20T11:33:14;98780.81;;;10.56;29.12
63321;BME280;49449;48.800;9.534;2023-12-20T11:35:42;98774.47;;;10.02;29.60
63321;BME280;49449;48.800;9.534;2023-12-20T11:38:10;98776.38;;;9.70;29.82
63321;BME280;49449;48.800;9.534;2023-12-20T11:40:38;98781.94;;;9.29;30.49
63321;BME280;49449;48.800;9.534;2023-12-20T11:43:05;98785.25;;;7.81;32.81
63321;BME280;49449;48.800;9.534;2023-12-20T11:45:35;98794.63;;;8.49;32.56
63321;BME280;49449;48.800;9.534;2023-12-20T11:48:03;98783.97;;;8.37;34.00
63321;BME280;49449;48.800;9.534;2023-12-20T11:50:31;98789.53;;;8.61;36.31
63321;BME280;49449;48.800;9.534;2023-12-20T11:52:59;98787.09;;;8.59;34.13
63321;BME280;49449;48.800;9.534;2023-12-20T11:55:27;98776.56;;;8.66;33.20
63321;BME280;49449;48.800;9.534;2023-12-20T11:57:55;98784.88;;;8.56;33.56
63321;BME280;49449;48.800;9.534;2023-12-20T12:00:24;98777.44;;;8.46;34.88
63321;BME280;49449;48.800;9.534;2023-12-20T12:02:58;98786.34;;;8.45;35.12
63321;BME280;49449;48.800;9.534;2023-12-20T12:05:26;98785.72;;;8.50;36.22
63321;BME280;49449;48.800;9.534;2023-12-20T12:07:54;98777.66;;;8.45;36.38
63321;BME280;49449;48.800;9.534;2023-12-20T12:10:22;98782.53;;;8.21;33.67
63321;BME280;49449;48.800;9.534;2023-12-20T12:12:50;98782.78;;;8.06;38.06
63321;BME280;49449;48.800;9.534;2023-12-20T12:15:18;98776.31;;;8.09;38.53
63321;BME280;49449;48.800;9.534;2023-12-20T12:17:52;98789.28;;;7.97;38.10
63321;BME280;49449;48.800;9.534;2023-12-20T12:20:22;98784.03;;;8.04;40.82
63321;BME280;49449;48.800;9.534;2023-12-20T12:22:57;98775.50;;;8.02;35.89
63321;BME280;49449;48.800;9.534;2023-12-20T12:25:26;98769.84;;;7.98;36.42
63321;BME280;49449;48.800;9.534;2023-12-20T12:27:56;98776.94;;;7.97;34.86
63321;BME280;49449;48.800;9.534;2023-12-20T12:30:24;98763.81;;;7.77;34.73
63321;BME280;49449;48.800;9.534;2023-12-20T12:32:56;98763.81;;;7.71;34.58
63321;BME280;49449;48.800;9.534;2023-12-20T12:35:25;98757.28;;;7.27;34.26
63321;BME280;49449;48.800;9.534;2023-12-20T12:37:53;98760.06;;;6.98;35.68
63321;BME280;49449;48.800;9.534;2023-12-20T12:40:21;98750.34;;;6.99;35.76
63321;BME280;49449;48.800;9.534;2023-12-20T12:42:48;98759.91;;;7.27;34.85
63321;BME280;49449;48.800;9.534;2023-12-20T12:45:16;98744.91;;;7.07;34.79
63321;BME280;49449;48.800;9.534;2023-12-20T12:47:45;98756.06;;;7.29;35.30
63321;BME280;49449;48.800;9.534;2023-12-20T12:50:13;98750.63;;;7.44;35.36
63321;BME280;49449;48.800;9.534;2023-12-20T12:52:42;98741.31;;;7.48;34.49
63321;BME280;49449;48.800;9.534;2023-12-20T12:55:10;98741.53;;;7.40;33.91
63321;BME280;49449;48.800;9.534;2023-12-20T12:57:37;98739.88;;;7.52;34.01
63321;BME280;49449;48.800;9.534;2023-12-20T13:00:06;98741.13;;;7.50;34.08
63321;BME280;49449;48.800;9.534;2023-12-20T13:02:35;98734.25;;;7.55;34.74
63321;BME280;49449;48.800;9.534;2023-12-20T13:05:05;98735.56;;;6.78;34.18
63321;BME280;49449;48.800;9.534;2023-12-20T13:07:33;98743.50;;;7.11;34.15
63321;BME280;49449;48.800;9.534;2023-12-20T13:10:02;98747.78;;;7.26;34.31
63321;BME280;49449;48.800;9.534;2023-12-20T13:12:30;98732.19;;;7.11;34.42
63321;BME280;49449;48.800;9.534;2023-12-20T13:14:58;98737.66;;;7.16;34.63
63321;BME280;49449;48.800;9.534;2023-12-20T13:17:26;98739.19;;;6.83;34.50